EFTP/TMP METAR and TAF weather

Enter ICAO airport designator
Station Type Date Time Source
EFTP METAR 2021/03/05 13:20 UTC NOAA

EFTP 051320Z 33007KT 290V360 9999 FEW030 M03/M10 Q1016


Station Type Date Time Source
EFTP Decoded METAR 2021/03/05 13:20 UTC NOAA

Tampere / Pirkkala, Finland (EFTP) 61-25N 023-35E 112M
Mar 05, 2021 - 08:20 AM EST / 2021.03.05 1320 UTC
Wind: from the NNW (330 degrees) at 8 MPH (7 KT) (direction variable):0
Visibility: greater than 7 mile(s):0
Sky conditions: mostly clear
Temperature: 26 F (-3 C)
Windchill: 17 F (-8 C):1
Dew Point: 14 F (-10 C)
Relative Humidity: 58%
Pressure (altimeter): 30.00 in. Hg (1016 hPa)
ob: EFTP 051320Z 33007KT 290V360 9999 FEW030 M03/M10 Q1016
cycle: 13

Station Type Date Time Source
EFTP TAF 2021/03/05 12:42 UTC NOAA

TAF EFTP 051126Z 0512/0612 34010KT CAVOK
BECMG 0521/0523 20004KT
BECMG 0605/0607 3000 -SN BKN009
BECMG 0610/0612 9999 -RA BKN015

Example: see airport list